map of MKC home
MKC - Airport
Location
City:  Kansas City, Missouri, United States
Name:Charles B Wheeler Downtown Airport
ICAO:KMKC
IATA:MKC
FAA LID:MKC

Details
Type:Airport (Part 139 Class IV)
Use:Public/Civil, International (customs landing rights)
Latitude:3907'23"N (39.122944)
Longitude:9435'34"W (-94.592832)
Datum:WGS 1984
Elevation:756 ft (230 m)
Variation:1.57E (WMM2015 magnetic declination)
-0.10 annual change
Runways:2
Longest:6827 × 150 ft (2081 × 45.5 m), paved

Time
Time Zone:UTC-6 (DST-5)
Local Time:

Weather
METAR:KMKC 150654Z 00000KT 10SM CLR M02/M07 A3017 RMK AO2 SLP220 T10171072
TAF:KMKC 150520Z 1506/1606 35005KT P6SM SKC

Related Locations
Nearby:
Farthest:YAUG: 10766 mi / 17327 km
Augusta [Augusta Airport], WA, AU

Find:

   beyond  
but within

Other Information
Maps:
NOTAMs:
Links:
Sources:

  
  • flag of United States
  • flag of Missouri
  

Airport Diagram

Airport diagram for MKC

Airport diagram PDF

Sectional Chart

Flight Planning
at skyvector.com

Satellite Image

Google Maps Satellite view

 

Copyright © 2004-2018 Karl L. Swartz. All rights reserved.
The Great Circle Mapper name and logo are trademarks of the Great Circle Mapper.
All other trademarks mentioned herein belong to their respective owners.
Please see credits for attibutions and further copyright information.

  Follow gcmap on Facebook Follow gcmap on Twitter Follow gcmap on Google+ GCmap on LinkedIn

hCard Microformat

Geo Microformat